createdAt,value
2019-03-15T00:02:14.224Z,4.80
2019-03-15T00:04:44.831Z,4.80
2019-03-15T00:07:15.588Z,4.80
2019-03-15T00:09:46.244Z,4.80
2019-03-15T00:12:16.799Z,4.80
2019-03-15T00:14:48.309Z,4.80
2019-03-15T00:17:18.830Z,4.60
2019-03-15T00:19:49.923Z,4.70
2019-03-15T00:22:20.500Z,4.70
2019-03-15T00:24:51.084Z,4.70
2019-03-15T00:27:21.616Z,4.70
2019-03-15T00:29:52.756Z,4.70
2019-03-15T00:32:23.501Z,4.70
2019-03-15T00:34:54.915Z,4.70
2019-03-15T00:37:25.551Z,4.70
2019-03-15T00:39:56.160Z,4.70
2019-03-15T00:42:26.791Z,4.70
2019-03-15T00:44:57.416Z,4.70
2019-03-15T00:47:28.073Z,4.70
2019-03-15T00:49:59.233Z,4.70
2019-03-15T00:52:29.974Z,4.70
2019-03-15T00:55:00.580Z,4.70
2019-03-15T00:57:31.212Z,4.70
2019-03-15T01:00:01.857Z,4.70
2019-03-15T01:02:32.551Z,4.70
2019-03-15T01:05:03.212Z,4.70
2019-03-15T01:07:33.787Z,4.70
2019-03-15T01:10:05.879Z,4.60
2019-03-15T01:12:37.597Z,4.60
2019-03-15T01:15:12.064Z,4.60
2019-03-15T01:17:42.677Z,4.60
2019-03-15T01:20:13.286Z,4.50
2019-03-15T01:22:43.965Z,4.50
2019-03-15T01:25:14.741Z,4.50
2019-03-15T01:27:45.343Z,4.40
2019-03-15T01:30:15.936Z,4.50
2019-03-15T01:32:46.612Z,4.50
2019-03-15T01:35:18.132Z,4.40
2019-03-15T01:37:48.737Z,4.40
2019-03-15T01:40:19.411Z,4.40
2019-03-15T01:42:50.645Z,4.40
2019-03-15T01:45:21.237Z,4.60
2019-03-15T01:47:51.847Z,4.40
2019-03-15T01:50:22.465Z,4.40
2019-03-15T01:52:53.922Z,4.40
2019-03-15T01:55:24.441Z,4.40
2019-03-15T01:57:54.900Z,4.50
2019-03-15T02:00:25.562Z,4.50
2019-03-15T02:02:56.206Z,4.40
2019-03-15T02:05:26.793Z,4.40
2019-03-15T02:07:57.265Z,4.50
2019-03-15T02:10:27.878Z,4.40
2019-03-15T02:12:58.277Z,4.50
2019-03-15T02:15:28.882Z,4.40
2019-03-15T02:17:59.772Z,4.40
2019-03-15T02:20:30.364Z,4.40
2019-03-15T02:23:01.010Z,4.50
2019-03-15T02:25:31.631Z,4.40
2019-03-15T02:28:02.860Z,4.50
2019-03-15T02:30:33.446Z,4.50
2019-03-15T02:33:04.113Z,4.50
2019-03-15T02:35:35.452Z,4.50
2019-03-15T02:38:06.092Z,4.50
2019-03-15T02:40:36.688Z,4.50
2019-03-15T02:43:07.342Z,4.50
2019-03-15T02:45:37.852Z,4.50
2019-03-15T02:48:08.493Z,4.50
2019-03-15T02:50:39.025Z,4.50
2019-03-15T02:53:10.391Z,4.50
2019-03-15T02:55:41.110Z,4.50
2019-03-15T02:58:11.768Z,4.50
2019-03-15T03:00:42.656Z,4.50
2019-03-15T03:03:13.209Z,4.50
2019-03-15T03:05:43.741Z,4.50
2019-03-15T03:08:14.641Z,4.60
2019-03-15T03:10:45.305Z,4.50
2019-03-15T03:13:15.919Z,4.60
2019-03-15T03:15:46.519Z,4.60
2019-03-15T03:18:17.213Z,4.60
2019-03-15T03:20:48.348Z,4.60
2019-03-15T03:23:19.164Z,4.60
2019-03-15T03:25:49.850Z,4.60
2019-03-15T03:28:20.392Z,4.60
2019-03-15T03:30:50.935Z,4.60
2019-03-15T03:33:22.603Z,4.60
2019-03-15T03:35:54.617Z,4.60
2019-03-15T03:38:25.304Z,4.60
2019-03-15T03:40:56.695Z,4.60
2019-03-15T03:43:28.416Z,4.60
2019-03-15T03:45:59.039Z,4.60
2019-03-15T03:48:30.362Z,4.60
2019-03-15T03:51:00.938Z,4.60
2019-03-15T03:53:31.594Z,4.60
2019-03-15T03:56:02.223Z,4.60
2019-03-15T03:58:33.127Z,4.60
2019-03-15T04:01:03.796Z,4.60
2019-03-15T04:03:34.428Z,4.50
2019-03-15T04:06:05.014Z,4.60
2019-03-15T04:08:35.619Z,4.60
2019-03-15T04:11:06.214Z,4.60
2019-03-15T04:13:36.985Z,4.60
2019-03-15T04:16:07.579Z,4.60
2019-03-15T04:18:38.185Z,4.60
2019-03-15T04:21:08.861Z,4.60
2019-03-15T04:23:39.488Z,4.60
2019-03-15T04:26:10.098Z,4.60
2019-03-15T04:28:40.637Z,4.60
2019-03-15T04:31:11.240Z,4.60
2019-03-15T04:33:41.851Z,4.60
2019-03-15T04:36:13.248Z,4.60
2019-03-15T04:38:43.898Z,4.60
2019-03-15T04:41:14.481Z,4.60
2019-03-15T04:43:45.167Z,4.60
2019-03-15T04:46:16.800Z,4.60
2019-03-15T04:48:47.360Z,4.60
2019-03-15T04:51:17.948Z,4.60
2019-03-15T04:53:48.444Z,4.60
2019-03-15T04:56:18.946Z,4.60
2019-03-15T04:58:49.550Z,4.60
2019-03-15T05:01:23.094Z,4.60
2019-03-15T05:03:53.725Z,4.60
2019-03-15T05:06:24.321Z,4.60
2019-03-15T05:08:54.909Z,4.60
2019-03-15T05:11:25.357Z,4.60
2019-03-15T05:13:58.642Z,4.60
2019-03-15T05:16:28.111Z,4.60
2019-03-15T05:18:59.078Z,4.60
2019-03-15T05:21:33.526Z,4.60
2019-03-15T05:24:10.132Z,4.60
2019-03-15T05:26:40.644Z,4.60
2019-03-15T05:29:11.236Z,4.60
2019-03-15T05:31:41.819Z,4.60
2019-03-15T05:34:12.448Z,4.60
2019-03-15T05:36:44.016Z,4.60
2019-03-15T05:39:15.069Z,4.60
2019-03-15T05:41:45.921Z,4.60
2019-03-15T05:44:17.499Z,4.60
2019-03-15T05:46:48.439Z,4.60
2019-03-15T05:49:18.973Z,4.60
2019-03-15T05:51:49.700Z,4.60
2019-03-15T05:54:22.032Z,4.60
2019-03-15T05:56:52.667Z,4.60
2019-03-15T05:59:25.286Z,4.70
2019-03-15T06:01:55.922Z,4.70
2019-03-15T06:04:26.563Z,4.70
2019-03-15T06:06:57.166Z,4.60
2019-03-15T06:09:28.664Z,4.70
2019-03-15T06:12:02.391Z,4.70
2019-03-15T06:14:33.011Z,4.70
2019-03-15T06:17:03.595Z,4.70
2019-03-15T06:19:34.222Z,4.80
2019-03-15T06:22:04.831Z,4.80
2019-03-15T06:24:35.607Z,4.80
2019-03-15T06:27:06.220Z,4.90
2019-03-15T06:29:36.791Z,4.80
2019-03-15T06:32:07.406Z,4.90
2019-03-15T06:34:39.409Z,4.90
2019-03-15T06:37:13.835Z,5.00
2019-03-15T06:39:46.610Z,5.00
2019-03-15T06:42:19.085Z,5.00
2019-03-15T06:45:00.875Z,5.00
2019-03-15T06:47:31.988Z,5.00
2019-03-15T06:50:02.789Z,5.10
2019-03-15T06:52:34.221Z,5.00
2019-03-15T06:55:06.552Z,5.10
2019-03-15T06:57:40.353Z,5.10
2019-03-15T07:00:16.111Z,5.10
2019-03-15T07:02:46.715Z,5.10
2019-03-15T07:05:17.319Z,5.10
2019-03-15T07:07:47.826Z,5.20
2019-03-15T07:10:18.417Z,5.20
2019-03-15T07:12:52.805Z,5.20
2019-03-15T07:15:23.402Z,5.20
2019-03-15T07:17:55.048Z,5.30
2019-03-15T07:20:26.592Z,5.20
2019-03-15T07:22:57.934Z,5.50
2019-03-15T07:25:28.479Z,5.40
2019-03-15T07:27:59.109Z,5.40
2019-03-15T07:30:29.788Z,5.40
2019-03-15T07:33:03.864Z,5.50
2019-03-15T07:35:36.250Z,5.50
2019-03-15T07:38:07.659Z,5.50
2019-03-15T07:40:39.199Z,5.50
2019-03-15T07:43:09.724Z,5.60
2019-03-15T07:45:40.262Z,5.60
2019-03-15T07:48:21.957Z,5.70
2019-03-15T07:50:43.480Z,5.70
2019-03-15T07:53:14.147Z,5.80
2019-03-15T07:55:44.800Z,5.90
2019-03-15T07:58:15.727Z,6.30
2019-03-15T08:00:46.807Z,6.20
2019-03-15T08:03:20.541Z,6.20
2019-03-15T08:06:01.428Z,6.30
2019-03-15T08:08:32.446Z,6.60
2019-03-15T08:11:04.369Z,6.40
2019-03-15T08:13:34.902Z,6.40
2019-03-15T08:16:05.535Z,6.40
2019-03-15T08:18:36.109Z,6.50
2019-03-15T08:21:06.730Z,6.30
2019-03-15T08:23:37.307Z,6.30
2019-03-15T08:26:09.573Z,6.40
2019-03-15T08:28:42.988Z,6.50
2019-03-15T08:31:14.017Z,6.60
2019-03-15T08:33:48.140Z,6.70
2019-03-15T08:36:20.458Z,6.80
2019-03-15T08:38:57.885Z,6.80
2019-03-15T08:41:28.477Z,6.80
2019-03-15T08:43:59.067Z,6.80
2019-03-15T08:46:29.654Z,6.80
2019-03-15T08:49:00.264Z,6.90
2019-03-15T08:51:30.911Z,6.90
2019-03-15T08:54:01.521Z,6.90
2019-03-15T08:56:33.111Z,6.90
2019-03-15T08:59:04.697Z,6.90
2019-03-15T09:04:05.041Z,6.90
2019-03-15T09:06:35.899Z,7.00
2019-03-15T09:09:09.682Z,7.10
2019-03-15T09:11:40.266Z,7.30
2019-03-15T09:14:10.818Z,7.70
2019-03-15T09:16:41.405Z,8.40
2019-03-15T09:19:12.094Z,8.80
2019-03-15T09:21:42.827Z,9.10
2019-03-15T09:24:16.421Z,9.30
2019-03-15T09:26:45.672Z,9.30
2019-03-15T09:29:16.203Z,9.20
2019-03-15T09:31:48.507Z,9.20
2019-03-15T09:34:19.257Z,8.70
2019-03-15T09:36:52.005Z,8.70
2019-03-15T09:39:23.350Z,8.50
2019-03-15T09:41:55.804Z,8.60
2019-03-15T09:44:26.805Z,8.60
2019-03-15T09:47:02.379Z,8.60
2019-03-15T09:49:33.533Z,8.60
2019-03-15T09:52:04.653Z,8.50
2019-03-15T09:54:36.724Z,8.40
2019-03-15T09:57:10.550Z,8.30
2019-03-15T09:59:41.181Z,8.30
2019-03-15T10:02:12.086Z,8.20
2019-03-15T10:04:42.649Z,8.20
2019-03-15T10:07:13.344Z,8.10
2019-03-15T10:09:46.150Z,8.00
2019-03-15T10:12:19.466Z,8.00
2019-03-15T10:14:50.715Z,8.00
2019-03-15T10:17:23.031Z,8.00
2019-03-15T10:19:53.646Z,8.10
2019-03-15T10:22:24.605Z,8.10
2019-03-15T10:24:55.203Z,8.20
2019-03-15T10:27:25.723Z,8.20
2019-03-15T10:30:01.557Z,8.10
2019-03-15T10:32:32.200Z,8.10
2019-03-15T10:35:03.324Z,8.10
2019-03-15T10:37:34.392Z,8.10
2019-03-15T10:40:13.088Z,8.60
2019-03-15T10:42:47.434Z,8.40
2019-03-15T10:45:18.025Z,8.60
2019-03-15T10:47:48.632Z,8.80
2019-03-15T10:50:20.335Z,8.90
2019-03-15T10:52:53.686Z,9.00
2019-03-15T10:55:26.270Z,9.20
2019-03-15T10:57:57.595Z,9.40
2019-03-15T11:00:29.274Z,9.50
2019-03-15T11:03:00.009Z,9.60
2019-03-15T11:05:34.895Z,9.60
2019-03-15T11:08:09.931Z,9.70
2019-03-15T11:10:40.429Z,9.80
2019-03-15T11:16:18.925Z,10.20
2019-03-15T11:18:49.489Z,10.40
2019-03-15T11:21:26.676Z,10.40
2019-03-15T11:23:58.027Z,10.50
2019-03-15T11:26:30.547Z,10.30
2019-03-15T11:29:01.111Z,10.30
2019-03-15T11:31:31.687Z,10.30
2019-03-15T11:34:02.248Z,10.10
2019-03-15T11:36:32.703Z,10.00
2019-03-15T11:39:03.272Z,9.80
2019-03-15T11:41:34.807Z,9.60
2019-03-15T11:44:05.742Z,9.50
2019-03-15T11:46:36.354Z,9.40
2019-03-15T11:49:07.237Z,9.30
2019-03-15T11:51:42.408Z,9.10
2019-03-15T11:54:12.351Z,8.90
2019-03-15T11:56:42.895Z,8.90
2019-03-15T11:59:13.409Z,8.90
2019-03-15T12:01:44.158Z,8.90
2019-03-15T12:04:14.767Z,9.10
2019-03-15T12:06:45.579Z,9.20
2019-03-15T12:09:16.138Z,9.40
2019-03-15T12:11:49.489Z,9.50
2019-03-15T12:14:21.753Z,9.70
2019-03-15T12:16:52.343Z,9.90
2019-03-15T12:19:25.744Z,10.10
2019-03-15T12:22:06.275Z,10.20
2019-03-15T12:24:29.315Z,10.40
2019-03-15T12:27:01.109Z,10.40
2019-03-15T12:29:33.161Z,10.40
2019-03-15T12:32:04.554Z,10.30
2019-03-15T12:34:35.031Z,10.20
2019-03-15T12:37:05.846Z,10.10
2019-03-15T12:39:38.427Z,10.00
2019-03-15T12:42:10.262Z,9.90
2019-03-15T12:44:41.236Z,10.00
2019-03-15T12:47:11.905Z,10.30
2019-03-15T12:49:42.510Z,10.40
2019-03-15T12:52:13.219Z,10.60
2019-03-15T12:54:43.812Z,10.80
2019-03-15T12:57:26.673Z,10.90
2019-03-15T12:59:57.273Z,11.00
2019-03-15T13:02:27.903Z,11.00
2019-03-15T13:04:58.447Z,11.00
2019-03-15T13:07:29.030Z,11.00
2019-03-15T13:09:59.653Z,11.00
2019-03-15T13:12:30.275Z,11.00
2019-03-15T13:15:00.921Z,11.00
2019-03-15T13:17:34.253Z,10.90
2019-03-15T13:23:02.458Z,10.50
2019-03-15T13:25:39.346Z,10.20
2019-03-15T13:28:10.995Z,10.10
2019-03-15T13:30:43.328Z,9.90
2019-03-15T13:33:20.289Z,9.80
2019-03-15T13:35:47.617Z,9.70
2019-03-15T13:38:18.241Z,9.60
2019-03-15T13:40:48.876Z,9.40
2019-03-15T13:43:21.559Z,9.30
2019-03-15T13:46:01.564Z,9.30
2019-03-15T13:48:32.166Z,9.40
2019-03-15T13:51:02.713Z,9.40
2019-03-15T13:53:34.540Z,9.50
2019-03-15T13:56:05.129Z,9.60
2019-03-15T13:58:35.740Z,9.70
2019-03-15T14:01:06.331Z,9.70
2019-03-15T14:03:38.325Z,9.60
2019-03-15T14:06:08.926Z,9.60
2019-03-15T14:08:39.590Z,9.70
2019-03-15T14:11:10.175Z,9.80
2019-03-15T14:13:40.786Z,9.90
2019-03-15T14:16:11.436Z,10.00
2019-03-15T14:18:42.008Z,9.90
2019-03-15T14:21:12.680Z,9.90
2019-03-15T14:23:44.116Z,9.90
2019-03-15T14:26:17.402Z,9.80
2019-03-15T14:28:49.317Z,9.80
2019-03-15T14:31:21.605Z,9.90
2019-03-15T14:33:52.079Z,9.90
2019-03-15T14:36:24.750Z,9.90
2019-03-15T14:38:55.949Z,9.90
2019-03-15T14:41:27.476Z,9.90
2019-03-15T14:43:59.304Z,9.90
2019-03-15T14:46:29.840Z,9.80
2019-03-15T14:49:00.424Z,9.90
2019-03-15T14:51:31.042Z,9.90
2019-03-15T14:54:02.641Z,9.80
2019-03-15T14:56:33.295Z,9.80
2019-03-15T14:59:04.050Z,9.90
2019-03-15T15:01:34.731Z,9.90
2019-03-15T15:04:10.176Z,9.90
2019-03-15T15:06:40.779Z,9.90
2019-03-15T15:09:11.694Z,9.90
2019-03-15T15:11:42.195Z,9.90
2019-03-15T15:14:12.784Z,9.80
2019-03-15T15:16:47.041Z,9.70
2019-03-15T15:19:17.654Z,9.70
2019-03-15T15:21:48.225Z,9.60
2019-03-15T15:24:19.624Z,9.60
2019-03-15T15:26:50.274Z,9.60
2019-03-15T15:29:22.137Z,9.60
2019-03-15T15:31:52.865Z,9.80
2019-03-15T15:34:23.515Z,9.60
2019-03-15T15:36:54.127Z,9.60
2019-03-15T15:39:24.701Z,9.50
2019-03-15T15:41:58.445Z,9.50
2019-03-15T15:44:44.514Z,9.50
2019-03-15T15:47:15.139Z,9.40
2019-03-15T15:49:45.764Z,9.30
2019-03-15T15:52:16.389Z,9.20
2019-03-15T15:54:47.043Z,9.20
2019-03-15T15:57:21.660Z,9.20
2019-03-15T15:59:54.412Z,9.10
2019-03-15T16:02:25.945Z,9.10
2019-03-15T16:04:56.455Z,9.10
2019-03-15T16:07:27.067Z,9.00
2019-03-15T16:09:58.681Z,9.00
2019-03-15T16:12:29.392Z,9.00
2019-03-15T16:15:01.424Z,9.00
2019-03-15T16:17:32.033Z,9.00
2019-03-15T16:20:02.726Z,9.00
2019-03-15T16:22:33.329Z,8.90
2019-03-15T16:25:06.341Z,8.90
2019-03-15T16:27:36.848Z,8.90
2019-03-15T16:30:20.029Z,8.80
2019-03-15T16:32:50.582Z,8.80
2019-03-15T16:35:21.193Z,8.80
2019-03-15T16:37:51.790Z,8.80
2019-03-15T16:40:22.387Z,8.80
2019-03-15T16:42:53.145Z,8.70
2019-03-15T16:45:29.777Z,8.70
2019-03-15T16:48:00.314Z,8.70
2019-03-15T16:50:30.889Z,8.70
2019-03-15T16:53:03.448Z,8.60
2019-03-15T16:55:34.043Z,8.60
2019-03-15T16:58:04.719Z,8.60
2019-03-15T17:00:36.458Z,8.60
2019-03-15T17:03:07.049Z,8.60
2019-03-15T17:05:39.118Z,8.60
2019-03-15T17:08:09.711Z,8.50
2019-03-15T17:10:40.657Z,8.50
2019-03-15T17:13:13.964Z,8.50
2019-03-15T17:15:45.041Z,8.50
2019-03-15T17:18:17.266Z,8.50
2019-03-15T17:23:48.333Z,8.40
2019-03-15T17:26:18.976Z,8.40
2019-03-15T17:28:58.537Z,8.40
2019-03-15T17:31:21.941Z,8.30
2019-03-15T17:33:52.551Z,8.30
2019-03-15T17:36:23.213Z,8.30
2019-03-15T17:38:53.959Z,8.30
2019-03-15T17:41:25.527Z,8.30
2019-03-15T17:43:56.128Z,8.30
2019-03-15T17:46:27.557Z,8.30
2019-03-15T17:48:59.567Z,8.40
2019-03-15T17:51:30.195Z,8.40
2019-03-15T17:54:01.586Z,8.40
2019-03-15T17:56:32.207Z,8.30
2019-03-15T17:59:12.456Z,8.30
2019-03-15T18:01:35.203Z,8.30
2019-03-15T18:04:06.013Z,8.30
2019-03-15T18:06:36.818Z,8.30
2019-03-15T18:09:07.602Z,8.30
2019-03-15T18:11:38.395Z,8.30
2019-03-15T18:14:08.988Z,8.40
2019-03-15T18:16:40.229Z,8.40
2019-03-15T18:19:16.035Z,8.30
2019-03-15T18:21:48.082Z,8.30
2019-03-15T18:24:18.684Z,8.30
2019-03-15T18:26:49.192Z,8.10
2019-03-15T18:29:26.184Z,8.30
2019-03-15T18:31:51.989Z,8.40
2019-03-15T18:34:22.595Z,8.40
2019-03-15T18:36:53.210Z,8.30
2019-03-15T18:39:23.806Z,8.30
2019-03-15T18:41:55.120Z,8.30
2019-03-15T18:44:25.813Z,8.20
2019-03-15T18:46:57.316Z,8.10
2019-03-15T18:49:28.109Z,8.00
2019-03-15T18:51:59.228Z,7.90
2019-03-15T18:54:30.599Z,7.80
2019-03-15T18:57:01.195Z,7.70
2019-03-15T18:59:39.782Z,7.50
2019-03-15T19:02:04.115Z,7.70
2019-03-15T19:04:34.684Z,7.50
2019-03-15T19:07:06.572Z,7.50
2019-03-15T19:09:37.164Z,7.50
2019-03-15T19:12:07.751Z,7.40
2019-03-15T19:14:39.677Z,7.40
2019-03-15T19:17:10.312Z,7.40
2019-03-15T19:19:40.901Z,7.40
2019-03-15T19:22:11.547Z,7.40
2019-03-15T19:27:21.377Z,7.30
2019-03-15T19:29:53.916Z,7.30
2019-03-15T19:32:24.131Z,7.20
2019-03-15T19:34:54.842Z,7.20
2019-03-15T19:37:25.544Z,7.20
2019-03-15T19:39:56.170Z,7.20
2019-03-15T19:42:26.824Z,7.20
2019-03-15T19:44:57.679Z,7.20
2019-03-15T19:47:29.219Z,7.10
2019-03-15T19:50:00.976Z,7.10
2019-03-15T19:52:31.616Z,7.20
2019-03-15T19:55:02.274Z,7.10
2019-03-15T19:57:32.874Z,7.00
2019-03-15T20:00:08.059Z,7.00
2019-03-15T20:02:37.848Z,7.00
2019-03-15T20:05:09.039Z,6.90
2019-03-15T20:07:40.001Z,6.80
2019-03-15T20:10:17.189Z,6.80
2019-03-15T20:12:48.086Z,6.90
2019-03-15T20:15:19.181Z,6.80
2019-03-15T20:17:49.815Z,6.80
2019-03-15T20:20:23.594Z,6.80
2019-03-15T20:22:54.187Z,6.70
2019-03-15T20:25:24.816Z,6.70
2019-03-15T20:27:55.456Z,6.90
2019-03-15T20:30:27.151Z,6.70
2019-03-15T20:32:57.937Z,6.70
2019-03-15T20:35:30.114Z,6.70
2019-03-15T20:38:01.380Z,6.60
2019-03-15T20:40:33.347Z,6.70
2019-03-15T20:43:04.288Z,6.70
2019-03-15T20:45:34.905Z,6.70
2019-03-15T20:48:07.922Z,6.60
2019-03-15T20:50:46.663Z,6.60
2019-03-15T20:53:12.844Z,6.60
2019-03-15T20:55:43.784Z,6.50
2019-03-15T20:58:14.729Z,6.60
2019-03-15T21:00:45.327Z,6.60
2019-03-15T21:03:15.965Z,6.50
2019-03-15T21:05:46.501Z,6.60
2019-03-15T21:08:17.154Z,6.60
2019-03-15T21:10:51.247Z,6.60
2019-03-15T21:13:20.385Z,6.60
2019-03-15T21:15:51.049Z,6.60
2019-03-15T21:18:21.662Z,6.60
2019-03-15T21:20:52.264Z,6.60
2019-03-15T21:23:22.911Z,6.50
2019-03-15T21:25:53.496Z,6.50
2019-03-15T21:28:24.151Z,6.50
2019-03-15T21:30:54.737Z,6.50
2019-03-15T21:33:26.002Z,6.80
2019-03-15T21:35:56.552Z,6.50
2019-03-15T21:38:27.580Z,6.50
2019-03-15T21:40:58.215Z,6.60
2019-03-15T21:43:28.837Z,6.60
2019-03-15T21:45:59.461Z,6.60
2019-03-15T21:48:31.249Z,6.50
2019-03-15T21:51:01.852Z,6.50
2019-03-15T21:53:32.520Z,6.50
2019-03-15T21:56:03.129Z,6.50
2019-03-15T21:58:37.569Z,6.50
2019-03-15T22:01:08.179Z,6.50
2019-03-15T22:03:38.690Z,6.50
2019-03-15T22:06:09.238Z,6.30
2019-03-15T22:08:40.643Z,6.50
2019-03-15T22:11:21.008Z,6.50
2019-03-15T22:13:43.664Z,6.30
2019-03-15T22:16:15.109Z,6.40
2019-03-15T22:18:45.713Z,6.60
2019-03-15T22:21:16.361Z,6.50
2019-03-15T22:23:46.936Z,6.40
2019-03-15T22:26:17.567Z,6.40
2019-03-15T22:28:50.040Z,6.40
2019-03-15T22:31:20.672Z,6.40
2019-03-15T22:33:51.217Z,6.50
2019-03-15T22:36:21.838Z,6.50
2019-03-15T22:38:52.426Z,6.50
2019-03-15T22:41:23.023Z,6.40
2019-03-15T22:43:54.428Z,6.40
2019-03-15T22:46:24.978Z,6.40
2019-03-15T22:48:56.388Z,6.40
2019-03-15T22:51:27.077Z,6.50
2019-03-15T22:53:57.624Z,6.40
2019-03-15T22:56:28.216Z,6.40
2019-03-15T22:58:58.790Z,6.40
2019-03-15T23:01:30.652Z,6.40
2019-03-15T23:04:01.318Z,6.40
2019-03-15T23:06:31.922Z,6.40
2019-03-15T23:09:02.668Z,6.40
2019-03-15T23:11:33.421Z,6.40
2019-03-15T23:14:04.096Z,6.40
2019-03-15T23:16:34.654Z,6.50
2019-03-15T23:19:05.862Z,6.40
2019-03-15T23:21:36.405Z,6.50
2019-03-15T23:24:07.266Z,6.50
2019-03-15T23:26:37.857Z,6.50
2019-03-15T23:29:08.390Z,6.50
2019-03-15T23:31:43.850Z,6.20
2019-03-15T23:34:11.966Z,6.50
2019-03-15T23:36:42.656Z,6.50
2019-03-15T23:39:14.182Z,6.50
2019-03-15T23:41:44.797Z,6.50
2019-03-15T23:44:15.316Z,6.50
2019-03-15T23:46:45.952Z,6.50
2019-03-15T23:49:18.515Z,6.50
2019-03-15T23:51:49.125Z,6.50
2019-03-15T23:54:19.575Z,6.70
2019-03-15T23:56:50.097Z,6.60
2019-03-15T23:59:20.642Z,6.60
